Time;durP1;ratioP1;P1;durP2;ratioP2;P2;SDS_P1;SDS_P2;PMS_P1;PMS_P2;Temp;Humidity;BMP_temperature;BMP_pressure;BME280_temperature;BME280_humidity;BME280_pressure;Samples;Min_cycle;Max_cycle;Signal;HPM_P1;HPM_P2
2023/01/19 00:01:36;;;;;;;5.82;4.22;;;3.60;54.10;;;1.98;57.97;99910.38;12269432;19;20491;-87
2023/01/19 00:05:38;;;;;;;5.22;4.18;;;3.50;54.20;;;1.90;57.98;99896.94;12269221;19;20019;-88
2023/01/19 00:09:39;;;;;;;5.60;4.25;;;3.40;54.40;;;1.86;57.92;99897.91;12271719;19;20018;-86
2023/01/19 00:13:48;;;;;;;6.85;4.85;;;3.40;54.50;;;1.90;58.04;99912.38;12273785;19;20122;-87
2023/01/19 00:17:50;;;;;;;8.65;4.43;;;3.30;54.50;;;1.80;58.12;99908.41;12277136;19;20017;-87
2023/01/19 00:21:51;;;;;;;8.23;4.72;;;3.30;54.60;;;1.90;58.03;99932.97;12277237;19;20502;-87
2023/01/19 00:25:53;;;;;;;6.05;4.22;;;3.30;54.60;;;1.89;57.92;99946.72;12266265;19;20006;-87
2023/01/19 00:29:55;;;;;;;5.90;4.68;;;3.30;54.40;;;1.70;57.88;99931.00;12267187;19;20379;-86
2023/01/19 00:33:56;;;;;;;7.45;4.80;;;3.20;54.20;;;1.62;58.04;99939.00;12268312;19;20006;-87
2023/01/19 00:37:58;;;;;;;6.10;4.25;;;3.20;54.20;;;1.67;58.12;99952.53;12267385;19;20051;-87
2023/01/19 00:46:26;;;;;;;5.85;4.35;;;3.10;54.30;;;1.68;57.94;99974.84;12265772;19;20026;-87
2023/01/19 00:50:29;;;;;;;9.85;4.72;;;3.10;54.40;;;1.54;57.90;99961.56;12267870;19;20015;-87
2023/01/19 00:54:31;;;;;;;8.20;4.93;;;3.00;54.20;;;1.52;57.81;99971.03;12265423;19;20010;-87
2023/01/19 00:58:33;;;;;;;7.13;4.40;;;3.00;54.20;;;1.40;58.00;99972.22;12264107;19;20014;-88
2023/01/19 01:02:36;;;;;;;8.13;4.22;;;2.90;54.20;;;1.47;58.04;99993.50;12267829;19;20566;-87
2023/01/19 01:06:37;;;;;;;5.53;4.43;;;2.90;54.20;;;1.46;57.80;100007.22;12262658;19;20022;-87
2023/01/19 01:10:39;;;;;;;8.43;4.50;;;2.90;54.30;;;1.38;57.82;99983.44;12265044;19;20014;-87
2023/01/19 01:14:41;;;;;;;5.93;4.63;;;3.10;54.50;;;1.46;58.00;99999.50;12264953;19;20415;-87
2023/01/19 01:18:43;;;;;;;7.35;4.90;;;3.10;54.50;;;1.22;57.94;99968.50;12262647;19;20018;-87
2023/01/19 01:22:49;;;;;;;8.50;4.95;;;2.80;54.40;;;1.35;58.01;99997.28;12265053;19;20023;-87
2023/01/19 01:26:51;;;;;;;5.65;4.10;;;2.80;54.40;;;1.34;57.95;99990.44;12265312;19;20021;-87
2023/01/19 01:30:55;;;;;;;6.07;4.30;;;2.80;54.40;;;1.32;58.12;100000.78;12264672;19;20010;-87
2023/01/19 01:34:57;;;;;;;5.50;4.57;;;2.80;54.80;;;1.28;58.09;100001.75;12262566;19;20010;-87
2023/01/19 01:38:59;;;;;;;5.70;4.03;;;2.80;54.40;;;1.24;57.86;100005.28;12260059;19;20468;-87
2023/01/19 01:43:01;;;;;;;6.40;4.53;;;2.80;54.20;;;1.23;57.88;100023.31;12264921;19;20010;-87
2023/01/19 01:47:03;;;;;;;7.05;4.68;;;2.70;54.00;;;1.03;57.80;99995.63;12265151;19;20022;-88
2023/01/19 01:51:22;;;;;;;6.43;4.32;;;2.60;53.90;;;1.09;57.92;100021.16;12262365;19;20026;-88
2023/01/19 01:55:28;;;;;;;5.85;4.18;;;2.60;54.00;;;0.91;57.87;100006.22;12255936;19;20006;-87
2023/01/19 01:59:38;;;;;;;7.38;4.15;;;2.50;54.00;;;0.67;58.08;99957.16;12253032;19;20022;-87
2023/01/19 02:03:40;;;;;;;6.72;4.15;;;2.40;54.00;;;0.87;57.78;99996.03;12255364;19;20093;-87
2023/01/19 02:16:47;;;;;;;7.28;3.95;;;2.40;54.30;;;0.77;58.15;100004.03;12252032;19;20620;-87
2023/01/19 02:21:20;;;;;;;7.60;4.28;;;2.30;54.10;;;0.76;58.02;100010.06;12250830;19;20010;-87
2023/01/19 02:25:24;;;;;;;6.03;4.28;;;2.20;54.10;;;0.67;57.85;100003.41;12254511;19;20434;-87
2023/01/19 02:29:27;;;;;;;4.82;3.72;;;2.20;54.10;;;0.57;57.83;100002.81;12249933;19;20007;-87
2023/01/19 02:33:29;;;;;;;6.18;4.28;;;2.10;54.00;;;0.60;57.76;100012.19;12249955;19;20018;-86
2023/01/19 02:37:38;;;;;;;5.05;3.65;;;2.10;53.90;;;0.36;57.77;99977.69;12242309;19;20018;-86
2023/01/19 02:41:50;;;;;;;7.07;4.85;;;2.00;53.90;;;0.50;57.83;100005.59;12241708;19;20015;-87
2023/01/19 02:45:52;;;;;;;7.72;4.30;;;2.00;54.00;;;0.27;57.85;99971.06;12241653;19;20033;-87
2023/01/19 02:49:59;;;;;;;6.40;4.63;;;2.00;54.10;;;0.21;57.82;99958.38;12247062;19;20019;-86
2023/01/19 02:54:03;;;;;;;7.35;4.10;;;2.20;54.10;;;0.46;57.87;100009.09;12256503;19;20033;-86
2023/01/19 02:58:16;;;;;;;5.30;4.60;;;1.90;53.90;;;0.39;57.74;100008.44;12253610;19;20010;-86
2023/01/19 03:02:33;;;;;;;7.22;5.07;;;1.90;53.90;;;0.33;57.82;100003.44;12257668;19;20018;-86
2023/01/19 03:07:13;;;;;;;6.82;4.75;;;1.90;53.80;;;0.24;57.73;99998.53;12251974;19;20042;-86
2023/01/19 03:11:15;;;;;;;6.78;4.53;;;1.80;53.80;;;0.12;57.77;99976.59;12253504;19;20014;-86
2023/01/19 03:15:27;;;;;;;7.43;4.45;;;1.70;53.90;;;0.04;57.73;99971.63;12252733;19;20077;-86
2023/01/19 03:19:39;;;;;;;7.07;4.40;;;1.70;53.90;;;0.10;57.88;100002.28;12250452;19;20031;-87
2023/01/19 03:23:44;;;;;;;9.15;5.38;;;1.80;54.00;;;-0.05;57.77;99982.13;12252834;19;20025;-87
2023/01/19 03:27:47;;;;;;;6.78;4.93;;;1.60;54.10;;;-0.15;58.00;99965.25;12253827;19;20051;-86
2023/01/19 03:31:50;;;;;;;8.93;4.60;;;1.60;54.20;;;-0.02;58.09;99988.03;12254371;19;20010;-86
2023/01/19 03:36:02;;;;;;;9.95;5.82;;;1.60;54.20;;;0.08;57.85;100000.63;12249451;19;20070;-86
2023/01/19 03:40:05;;;;;;;7.40;4.70;;;1.80;54.20;;;0.11;57.86;100015.94;12254604;19;20364;-86
2023/01/19 03:44:10;;;;;;;6.00;4.82;;;1.60;54.10;;;0.01;57.87;100009.38;12251384;19;20085;-86
2023/01/19 03:48:13;;;;;;;6.88;4.53;;;1.60;54.10;;;-0.16;57.68;99981.50;12254385;19;20022;-86
2023/01/19 03:52:14;;;;;;;6.25;4.90;;;1.90;54.10;;;-0.03;58.00;100011.13;12251259;19;20138;-86
2023/01/19 03:56:23;;;;;;;7.28;4.85;;;1.50;54.00;;;-0.07;57.72;100015.50;12247670;19;20109;-86
2023/01/19 04:00:24;;;;;;;6.57;4.38;;;1.70;54.10;;;-0.34;57.82;99975.94;12251339;19;20014;-86
2023/01/19 04:04:26;;;;;;;6.65;4.05;;;1.50;54.00;;;-0.14;57.79;100023.38;12248689;19;20020;-87
2023/01/19 04:08:28;;;;;;;6.10;4.47;;;1.60;54.00;;;-0.12;57.82;100047.28;12252262;19;20019;-86
2023/01/19 04:12:30;;;;;;;6.93;5.07;;;1.40;54.00;;;-0.44;57.68;99984.72;12253901;19;20037;-86
2023/01/19 04:16:32;;;;;;;7.72;5.45;;;1.60;54.10;;;-0.29;57.87;100027.16;12247185;19;20022;-86
2023/01/19 04:20:34;;;;;;;8.02;5.18;;;1.60;54.20;;;-0.25;57.94;100039.00;12255464;19;20009;-86
2023/01/19 04:24:36;;;;;;;8.13;5.35;;;1.40;54.20;;;-0.27;57.94;100053.59;12257961;19;20015;-87
2023/01/19 04:28:38;;;;;;;9.25;5.10;;;1.60;54.30;;;-0.40;57.97;100036.81;12257307;19;20020;-86
2023/01/19 04:32:40;;;;;;;6.43;4.82;;;1.30;54.20;;;-0.32;58.03;100055.44;12258489;19;20481;-86
2023/01/19 04:36:44;;;;;;;5.57;4.18;;;1.30;54.20;;;-0.39;57.88;100036.75;12254915;19;20382;-88
2023/01/19 04:40:47;;;;;;;8.45;4.72;;;1.20;54.20;;;-0.38;57.99;100035.84;12257872;19;20018;-87
2023/01/19 04:44:49;;;;;;;6.85;4.60;;;1.30;54.30;;;-0.51;57.92;100019.91;12256926;19;20006;-86
2023/01/19 04:48:51;;;;;;;7.00;4.65;;;1.20;54.30;;;-0.33;57.92;100052.00;12258701;19;20031;-86
2023/01/19 04:52:52;;;;;;;6.97;4.80;;;1.20;54.30;;;-0.50;57.87;100025.88;12261441;19;20006;-86
2023/01/19 04:56:54;;;;;;;6.30;3.95;;;1.20;54.30;;;-0.85;57.98;99962.53;12253666;19;20027;-86
2023/01/19 05:00:55;;;;;;;8.98;4.72;;;1.20;54.20;;;-0.66;57.97;99997.16;12255859;19;20010;-87
2023/01/19 05:04:57;;;;;;;6.28;4.18;;;1.40;54.30;;;-0.80;58.01;99992.31;12256521;19;20014;-86
2023/01/19 05:08:59;;;;;;;6.22;4.38;;;1.10;54.20;;;-0.51;57.90;100048.13;12257402;19;20046;-86
2023/01/19 05:13:01;;;;;;;7.13;4.65;;;1.10;54.10;;;-0.58;58.04;100033.72;12253151;19;20123;-87
2023/01/19 05:17:02;;;;;;;8.35;5.03;;;1.10;54.10;;;-0.57;57.89;100039.69;12259950;19;20010;-86
2023/01/19 05:21:05;;;;;;;7.78;5.32;;;1.10;54.10;;;-0.58;57.98;100040.59;12259232;19;20010;-88
2023/01/19 05:25:08;;;;;;;6.72;4.93;;;1.30;54.30;;;-0.56;57.94;100051.66;12254869;19;20096;-86
2023/01/19 05:29:09;;;;;;;6.65;5.03;;;1.00;54.30;;;-0.75;58.10;100028.13;12258651;19;20017;-87
2023/01/19 05:33:11;;;;;;;7.20;4.72;;;1.00;54.40;;;-0.69;57.96;100039.06;12257774;19;20027;-85
2023/01/19 05:37:13;;;;;;;8.85;5.07;;;1.10;54.50;;;-0.62;58.06;100050.06;12257598;19;20013;-83
2023/01/19 05:41:16;;;;;;;7.90;5.30;;;1.00;54.50;;;-0.59;58.10;100061.97;12258808;19;20013;-84
2023/01/19 05:45:18;;;;;;;8.52;5.95;;;1.00;54.60;;;-0.59;58.25;100067.94;12257905;19;20046;-84
2023/01/19 05:49:20;;;;;;;9.90;6.03;;;1.20;54.70;;;-0.57;57.98;100068.75;12258244;19;20015;-84
2023/01/19 05:53:22;;;;;;;11.27;6.25;;;1.20;54.70;;;-0.72;58.04;100053.69;12258517;19;20014;-84
2023/01/19 05:57:23;;;;;;;11.52;5.40;;;1.00;54.60;;;-0.64;58.16;100069.75;12258163;19;20011;-84
2023/01/19 06:01:26;;;;;;;8.40;5.55;;;1.00;54.50;;;-1.25;58.04;99971.84;12259306;19;20022;-85
2023/01/19 06:05:28;;;;;;;7.72;5.63;;;1.00;54.50;;;-0.68;58.22;100063.81;12255568;19;20066;-84
2023/01/19 06:09:30;;;;;;;9.02;5.63;;;1.00;54.50;;;-0.64;58.09;100069.75;12257986;19;20015;-84
2023/01/19 06:13:33;;;;;;;8.60;5.20;;;1.00;54.50;;;-0.57;58.21;100086.69;12255213;19;20018;-85
2023/01/19 06:17:35;;;;;;;6.03;4.65;;;1.20;54.60;;;-0.92;58.22;100028.44;12255426;19;20036;-84
2023/01/19 06:21:38;;;;;;;6.60;4.80;;;1.00;54.50;;;-0.57;58.00;100073.88;12258654;19;20037;-84
2023/01/19 06:25:40;;;;;;;7.32;5.15;;;1.10;54.50;;;-0.82;58.26;100032.50;12258892;19;20028;-84
2023/01/19 06:29:41;;;;;;;7.82;5.40;;;1.00;54.30;;;-0.67;58.21;100062.13;12272175;19;20478;-85
2023/01/19 06:33:43;;;;;;;10.18;5.85;;;1.10;54.30;;;-1.19;57.99;99982.00;12268416;19;20007;-84
2023/01/19 06:37:45;;;;;;;7.07;5.30;;;1.20;54.40;;;-0.69;58.06;100079.25;12268616;19;20010;-84
2023/01/19 06:41:46;;;;;;;8.48;5.22;;;1.00;54.20;;;-0.67;58.08;100090.34;12265010;19;20017;-84
2023/01/19 06:45:49;;;;;;;9.70;6.35;;;1.30;54.40;;;-0.81;58.34;100058.97;12258217;19;20014;-84
2023/01/19 06:49:51;;;;;;;9.55;5.75;;;0.90;54.20;;;-0.70;58.12;100080.97;12259795;19;20010;-84
2023/01/19 06:53:53;;;;;;;9.20;4.45;;;1.30;54.40;;;-0.72;58.17;100084.44;12256064;19;20032;-84
2023/01/19 06:57:59;;;;;;;7.43;4.75;;;1.30;54.40;;;-0.75;58.11;100094.75;12256381;19;20011;-84
2023/01/19 07:02:01;;;;;;;9.13;4.93;;;1.10;54.20;;;-0.85;58.00;100091.50;12256690;19;20025;-84
2023/01/19 07:06:05;;;;;;;6.07;4.68;;;0.90;54.00;;;-0.84;58.06;100107.72;12253270;19;20022;-84
2023/01/19 07:10:10;;;;;;;7.57;5.00;;;0.80;53.90;;;-0.98;58.02;100103.69;12258196;19;20006;-84
2023/01/19 07:14:12;;;;;;;;;;;0.80;53.90;;;-1.06;58.10;100095.31;12252650;19;20015;-84
2023/01/19 07:18:14;;;;;;;5.47;3.83;;;0.70;53.90;;;-1.33;58.04;100064.16;12256318;19;20245;-84
2023/01/19 07:22:15;;;;;;;6.65;4.88;;;0.70;53.90;;;-1.12;58.25;100103.94;12256525;19;20030;-83
2023/01/19 07:26:20;;;;;;;5.13;4.63;;;0.70;53.90;;;-1.35;58.05;100060.81;12251608;19;20010;-84
2023/01/19 07:30:21;;;;;;;8.20;5.40;;;1.00;54.20;;;-1.34;57.98;100067.63;12256757;19;20014;-83
2023/01/19 07:34:23;;;;;;;6.75;4.70;;;0.80;54.10;;;-1.15;58.13;100098.03;12255232;19;20026;-84
2023/01/19 07:38:24;;;;;;;7.00;4.40;;;0.60;54.00;;;-1.02;58.03;100122.56;12251912;19;20022;-84
2023/01/19 07:42:26;;;;;;;6.43;5.13;;;0.60;54.00;;;-1.27;58.05;100088.00;12255447;19;20018;-83
2023/01/19 07:46:28;;;;;;;5.80;4.60;;;0.50;54.10;;;-1.15;58.16;100113.41;12250894;19;20030;-83
2023/01/19 07:50:30;;;;;;;7.53;4.97;;;0.50;54.10;;;-1.06;58.06;100126.06;12253280;19;20035;-83
2023/01/19 07:54:32;;;;;;;7.40;5.18;;;0.60;54.20;;;-1.19;58.22;100112.63;12253799;19;20035;-84
2023/01/19 07:58:34;;;;;;;6.68;4.57;;;0.60;54.50;;;-1.26;58.35;100111.03;12253220;19;20011;-83
2023/01/19 08:02:36;;;;;;;9.00;4.78;;;0.60;54.10;;;-1.05;58.19;100143.13;12253815;19;20022;-83
2023/01/19 08:06:43;;;;;;;9.00;4.68;;;0.90;54.20;;;-1.36;58.07;100091.56;12250646;19;20010;-84
2023/01/19 08:10:48;;;;;;;9.38;4.70;;;0.60;54.10;;;-1.06;58.20;100149.09;12254241;19;20014;-84
2023/01/19 08:14:50;;;;;;;6.28;4.60;;;0.50;54.10;;;-1.08;58.24;100150.00;12251492;19;20037;-83
2023/01/19 08:18:52;;;;;;;9.00;5.40;;;0.80;54.30;;;-1.12;58.16;100144.09;12249796;19;20082;-84
2023/01/19 08:23:01;;;;;;;5.88;4.53;;;0.80;54.40;;;-1.35;58.27;100109.47;12251583;19;20013;-84
2023/01/19 08:27:03;;;;;;;7.90;5.00;;;0.90;54.50;;;-1.07;58.25;100156.84;12252671;19;20010;-85
2023/01/19 08:31:05;;;;;;;12.05;5.25;;;0.60;54.50;;;-1.20;58.34;100139.09;12254938;19;20036;-85
2023/01/19 08:35:08;;;;;;;9.75;6.35;;;0.60;54.60;;;-1.04;58.24;100155.06;12253082;19;20014;-86
2023/01/19 08:39:13;;;;;;;9.40;5.35;;;0.60;54.90;;;-1.06;58.29;100161.91;12253069;19;20649;-86
2023/01/19 08:43:16;;;;;;;8.70;6.40;;;0.80;55.00;;;-1.01;58.15;100159.28;12254651;19;20029;-83
2023/01/19 08:47:18;;;;;;;9.43;6.03;;;1.00;55.30;;;-0.89;58.41;100182.16;12251129;19;20007;-85
2023/01/19 08:51:21;;;;;;;11.18;6.50;;;0.70;55.50;;;-1.06;58.49;100131.19;12254336;19;20070;-84
2023/01/19 08:55:24;;;;;;;12.88;7.57;;;0.90;55.30;;;-1.25;58.47;100097.34;12250229;19;20011;-83
2023/01/19 08:59:25;;;;;;;9.52;7.30;;;0.90;55.40;;;-0.71;58.46;100168.16;12251580;19;20018;-83
2023/01/19 09:03:27;;;;;;;10.00;6.65;;;1.00;55.60;;;-0.58;58.46;100181.59;12252095;19;20014;-84
2023/01/19 09:07:29;;;;;;;8.15;5.72;;;1.00;56.00;;;-0.63;58.47;100165.44;12251185;19;20018;-84
2023/01/19 09:11:31;;;;;;;10.02;5.60;;;1.10;55.80;;;-0.46;58.53;100178.78;12250045;19;20520;-84
2023/01/19 09:15:36;;;;;;;7.07;4.50;;;1.20;56.10;;;-0.40;58.62;100183.84;12246111;19;20019;-84
2023/01/19 09:19:39;;;;;;;8.02;6.13;;;1.40;55.90;;;-0.45;58.73;100152.28;12246651;19;20017;-84
2023/01/19 09:23:41;;;;;;;8.75;5.00;;;1.30;56.00;;;-0.28;58.70;100177.59;12248648;19;20427;-83
2023/01/19 09:27:42;;;;;;;11.63;5.82;;;1.40;56.20;;;-0.20;58.79;100186.00;12249668;19;20074;-84
2023/01/19 09:31:44;;;;;;;6.88;4.75;;;1.60;56.10;;;-0.13;58.82;100197.00;12249555;19;20018;-84
2023/01/19 09:35:48;;;;;;;7.38;4.80;;;1.80;56.30;;;-0.39;58.98;100136.78;12248332;19;20489;-84
2023/01/19 09:39:49;;;;;;;8.85;5.13;;;1.80;56.40;;;-0.01;58.76;100189.88;12246167;19;20014;-84
2023/01/19 09:43:59;;;;;;;8.40;5.82;;;2.00;56.40;;;0.11;58.86;100201.63;12246614;19;20015;-84
2023/01/19 09:48:12;;;;;;;6.47;4.55;;;1.70;56.60;;;0.14;58.83;100193.84;12248325;19;20003;-84
2023/01/19 09:52:14;;;;;;;6.80;5.20;;;1.80;56.50;;;0.20;58.89;100188.59;12248054;19;20503;-84
2023/01/19 09:56:21;;;;;;;7.78;4.88;;;1.90;56.40;;;0.29;59.05;100187.53;12245511;19;20007;-84
2023/01/19 10:00:26;;;;;;;9.20;6.20;;;2.00;56.70;;;0.42;58.95;100188.13;12246176;19;20011;-84
2023/01/19 10:05:01;;;;;;;5.40;3.90;;;2.20;56.90;;;0.52;58.93;100188.78;12245659;19;20025;-84
2023/01/19 10:09:23;;;;;;;7.97;5.00;;;2.20;56.70;;;0.55;59.08;100179.25;12246965;19;20022;-84
2023/01/19 10:13:48;;;;;;;5.50;4.25;;;2.30;56.70;;;0.66;58.95;100173.88;12245775;19;20763;-84
2023/01/19 10:18:06;;;;;;;8.37;4.47;;;2.50;56.60;;;0.77;59.17;100178.75;12245060;19;20011;-84
2023/01/19 10:22:27;;;;;;;5.63;4.63;;;2.50;56.60;;;0.86;59.09;100169.13;12247422;19;20011;-85
2023/01/19 10:26:51;;;;;;;8.30;5.00;;;2.60;56.80;;;0.94;59.17;100157.78;12244777;19;20014;-85
2023/01/19 10:30:56;;;;;;;9.13;5.97;;;2.70;56.80;;;1.09;59.28;100157.41;12245807;19;20033;-84
2023/01/19 10:34:58;;;;;;;6.72;5.03;;;2.80;57.30;;;1.22;59.17;100150.22;12243286;19;20011;-85
2023/01/19 10:39:06;;;;;;;8.00;5.38;;;2.90;56.80;;;1.40;59.52;100169.47;12242553;19;20018;-85
2023/01/19 10:43:46;;;;;;;6.80;4.70;;;3.00;57.00;;;1.48;59.56;100162.38;12244750;19;20018;-85
2023/01/19 10:47:49;;;;;;;7.63;5.15;;;3.30;57.20;;;1.51;59.47;100144.28;12239236;19;20057;-85
2023/01/19 10:51:51;;;;;;;6.95;4.75;;;3.30;57.10;;;1.67;59.40;100158.41;12241291;19;20028;-85
2023/01/19 10:56:26;;;;;;;5.85;4.28;;;3.50;57.10;;;1.70;59.43;100148.06;12240953;19;20356;-85
2023/01/19 11:00:34;;;;;;;5.28;4.15;;;3.60;56.90;;;1.74;59.34;100144.50;12246458;19;20017;-86
2023/01/19 11:04:35;;;;;;;4.25;3.72;;;3.60;56.60;;;1.66;59.46;100112.16;12243576;19;20093;-85
2023/01/19 11:08:37;;;;;;;7.97;4.93;;;3.60;56.40;;;1.99;59.44;100170.38;12244656;19;20039;-85
2023/01/19 11:12:41;;;;;;;4.18;3.60;;;3.90;56.60;;;2.05;59.59;100168.50;12254686;19;20033;-85
2023/01/19 11:16:54;;;;;;;7.25;3.92;;;3.80;56.40;;;1.94;59.52;100140.50;12249242;19;20014;-85
2023/01/19 11:21:08;;;;;;;6.25;4.25;;;3.80;56.40;;;2.03;59.40;100147.13;12254445;19;20329;-85
2023/01/19 11:25:31;;;;;;;7.10;4.97;;;3.90;56.30;;;2.09;59.45;100155.50;12251953;19;20733;-85
2023/01/19 11:29:33;;;;;;;6.93;5.57;;;3.90;56.20;;;2.06;59.37;100136.75;12255362;19;20030;-85
2023/01/19 11:33:41;;;;;;;6.68;4.97;;;3.90;56.30;;;2.19;59.43;100146.63;12252263;19;20045;-85
2023/01/19 11:37:43;;;;;;;6.70;4.80;;;4.20;56.30;;;2.19;59.48;100128.59;12252202;19;20464;-85
2023/01/19 11:41:50;;;;;;;7.53;5.32;;;4.00;56.40;;;2.19;59.34;100122.59;12255073;19;20392;-85
2023/01/19 11:45:55;;;;;;;8.20;5.18;;;4.00;56.30;;;2.21;59.26;100119.09;12250788;19;20003;-85
2023/01/19 11:50:08;;;;;;;7.65;5.15;;;4.00;56.40;;;2.42;59.16;100145.06;12253423;19;20018;-84
2023/01/19 11:54:24;;;;;;;8.05;4.50;;;4.30;56.50;;;2.20;59.55;100094.22;12255065;19;20017;-85
2023/01/19 11:58:26;;;;;;;8.07;5.30;;;4.20;56.50;;;2.49;59.19;100133.69;12256699;19;20014;-84
2023/01/19 12:02:42;;;;;;;7.47;5.63;;;4.10;56.60;;;2.51;59.48;100128.47;12252814;19;20010;-84
2023/01/19 12:06:50;;;;;;;6.07;4.53;;;4.10;56.40;;;2.34;59.38;100078.31;12248640;19;20019;-84
2023/01/19 12:10:56;;;;;;;7.85;5.28;;;4.20;56.40;;;2.60;59.37;100126.47;12253896;19;20007;-85
2023/01/19 12:15:02;;;;;;;7.20;5.00;;;4.30;56.60;;;2.72;59.38;100132.94;12247833;19;20345;-84
2023/01/19 12:19:14;;;;;;;7.18;5.60;;;4.30;56.50;;;2.71;59.38;100127.84;12248757;19;20011;-84
2023/01/19 12:23:40;;;;;;;7.95;5.85;;;4.40;57.00;;;2.56;59.35;100095.66;12246951;19;20026;-84
2023/01/19 12:27:44;;;;;;;;;;;4.40;56.70;;;2.77;59.34;100125.06;12251473;19;20010;-84
2023/01/19 12:32:18;;;;;;;7.28;5.78;;;4.50;56.60;;;2.88;59.39;100117.81;12251484;19;19923;-85
2023/01/19 12:36:28;;;;;;;7.30;5.72;;;4.50;56.60;;;2.97;59.54;100129.56;12250361;19;20515;-84
2023/01/19 12:40:33;;;;;;;7.13;5.05;;;4.80;56.80;;;3.00;59.31;100135.47;12253853;19;20015;-85
2023/01/19 12:44:35;;;;;;;7.35;5.00;;;4.70;56.60;;;2.72;59.35;100094.28;12250278;19;20339;-85
2023/01/19 12:48:37;;;;;;;8.10;6.38;;;4.70;56.60;;;3.02;59.24;100131.06;12249477;19;20499;-85
2023/01/19 12:52:56;;;;;;;6.47;5.10;;;4.70;56.60;;;3.17;59.52;100158.09;12251275;19;20078;-85
2023/01/19 12:57:07;;;;;;;8.27;5.95;;;4.70;56.50;;;3.16;59.52;100148.69;12250936;19;20018;-85
2023/01/19 13:01:20;;;;;;;7.45;5.70;;;4.80;56.50;;;3.21;59.42;100159.66;12249713;19;20488;-85
2023/01/19 13:05:31;;;;;;;7.53;6.22;;;4.90;56.50;;;3.27;59.17;100161.22;12250700;19;20022;-85
2023/01/19 13:09:38;;;;;;;8.10;5.65;;;4.80;56.40;;;3.23;59.46;100152.72;12250809;19;20378;-85
2023/01/19 13:13:48;;;;;;;7.78;5.05;;;4.80;56.30;;;3.31;59.16;100161.06;12248492;19;20018;-85
2023/01/19 13:17:53;;;;;;;9.20;4.70;;;4.90;56.30;;;3.22;59.16;100148.47;12248919;19;20053;-85
2023/01/19 13:21:55;;;;;;;7.27;5.10;;;4.90;56.40;;;3.36;59.34;100173.81;12248166;19;20010;-85
2023/01/19 13:26:14;;;;;;;8.75;5.45;;;4.90;56.40;;;3.30;59.47;100177.44;12246939;19;20013;-85
2023/01/19 13:30:18;;;;;;;7.38;5.15;;;5.20;56.40;;;2.98;59.33;100113.19;12248582;19;20377;-85
2023/01/19 13:34:26;;;;;;;5.88;4.97;;;5.00;56.20;;;3.34;59.30;100165.25;12244731;19;20015;-85
2023/01/19 13:38:31;;;;;;;6.63;4.65;;;5.10;56.30;;;3.26;59.35;100162.94;12246556;19;20018;-85
2023/01/19 13:42:38;;;;;;;10.48;5.38;;;5.00;56.10;;;3.38;59.15;100177.19;12251675;19;20006;-85
2023/01/19 13:46:41;;;;;;;7.25;4.82;;;5.00;56.20;;;3.37;59.40;100175.47;12243087;19;20018;-85
2023/01/19 13:51:06;;;;;;;9.98;5.50;;;5.00;56.10;;;3.36;59.34;100176.38;12247402;19;20353;-85
2023/01/19 13:55:14;;;;;;;9.45;6.45;;;5.00;56.20;;;3.30;59.46;100167.13;12245198;19;20010;-85
2023/01/19 13:59:16;;;;;;;10.25;6.10;;;5.00;56.20;;;3.38;59.44;100181.50;12246495;19;20064;-85
2023/01/19 14:03:22;;;;;;;7.75;5.22;;;5.00;56.20;;;3.19;59.45;100151.16;12249744;19;20035;-85
2023/01/19 14:07:26;;;;;;;7.70;4.43;;;5.30;56.30;;;3.33;59.40;100174.75;12250781;19;20023;-85
2023/01/19 14:11:28;;;;;;;7.13;5.00;;;5.30;56.40;;;3.37;59.28;100174.63;12251304;19;20014;-85
2023/01/19 14:15:33;;;;;;;6.35;4.25;;;5.00;56.20;;;3.43;59.33;100190.78;12248443;19;20385;-85
2023/01/19 14:19:52;;;;;;;;;;;5.00;56.20;;;3.42;59.29;100193.41;12247709;19;20019;-85
2023/01/19 14:24:16;;;;;;;6.60;3.97;;;5.00;56.20;;;3.38;59.36;100187.50;12249067;19;19937;-86
2023/01/19 14:28:42;;;;;;;7.13;5.10;;;5.00;56.10;;;3.44;59.17;100200.19;12250078;19;20077;-85
2023/01/19 14:32:45;;;;;;;;;;;5.00;56.10;;;3.32;59.16;100185.09;12252202;19;20051;-85
2023/01/19 14:36:50;;;;;;;3.90;3.25;;;5.20;56.20;;;3.31;59.09;100178.28;12245429;19;20247;-85
2023/01/19 14:40:52;;;;;;;4.97;3.45;;;5.00;55.90;;;3.08;59.13;100142.94;12247508;19;20572;-85
2023/01/19 14:44:56;;;;;;;5.38;3.90;;;5.00;55.90;;;3.30;59.23;100176.59;12245327;19;20358;-85
2023/01/19 14:49:04;;;;;;;5.47;4.00;;;5.20;56.00;;;3.48;59.08;100206.09;12259111;19;20468;-85
2023/01/19 14:53:25;;;;;;;5.45;4.40;;;5.10;56.00;;;3.42;59.21;100206.28;12258627;19;20050;-84
2023/01/19 14:57:27;;;;;;;7.25;4.32;;;5.00;56.00;;;3.38;59.10;100200.41;12247625;19;20011;-85
2023/01/19 15:01:29;;;;;;;5.28;4.22;;;5.00;56.30;;;3.39;59.07;100199.50;12261186;19;20015;-85
2023/01/19 15:05:32;;;;;;;5.95;4.30;;;5.00;55.90;;;3.23;59.04;100182.84;12256043;19;20027;-85
2023/01/19 15:09:33;;;;;;;6.15;4.88;;;4.90;56.20;;;3.39;59.14;100203.81;12260090;19;20010;-84
2023/01/19 15:13:38;;;;;;;6.55;4.75;;;5.10;55.90;;;3.40;59.13;100214.06;12257051;19;20038;-85
2023/01/19 15:17:39;;;;;;;4.93;4.25;;;4.90;55.90;;;3.28;59.03;100199.03;12255744;19;20021;-84
2023/01/19 15:21:41;;;;;;;6.50;4.65;;;4.90;55.80;;;3.41;59.18;100226.09;12256984;19;20010;-84
2023/01/19 15:25:43;;;;;;;6.43;4.70;;;4.90;55.80;;;3.30;59.27;100212.72;12254031;19;20019;-84
2023/01/19 15:29:45;;;;;;;4.68;3.75;;;4.90;55.80;;;3.33;59.19;100221.19;12257397;19;20367;-84
2023/01/19 15:33:46;;;;;;;5.82;4.30;;;5.00;55.80;;;3.35;59.04;100218.56;12258274;19;20011;-84
2023/01/19 15:37:49;;;;;;;6.82;5.07;;;4.90;55.80;;;3.24;59.07;100198.28;12257189;19;20728;-84
2023/01/19 15:41:52;;;;;;;9.15;5.35;;;4.90;55.80;;;3.28;58.95;100212.75;12259136;19;20015;-84
2023/01/19 15:46:01;;;;;;;9.95;6.72;;;4.80;55.70;;;3.29;58.79;100226.50;12252142;19;20044;-84
2023/01/19 15:50:03;;;;;;;8.63;5.30;;;4.80;55.70;;;3.31;58.99;100241.03;12253812;19;20382;-84
2023/01/19 15:54:04;;;;;;;6.80;5.28;;;4.80;55.70;;;3.30;58.86;100238.53;12252426;19;20010;-84
2023/01/19 15:58:07;;;;;;;6.15;4.70;;;4.70;55.70;;;3.00;59.20;100184.47;12249033;19;20081;-84
2023/01/19 16:02:09;;;;;;;6.85;4.50;;;4.80;55.70;;;3.21;59.04;100225.91;12251642;19;20014;-84
2023/01/19 16:06:12;;;;;;;6.85;5.18;;;4.70;55.70;;;3.15;58.93;100221.81;12248598;19;20487;-84
2023/01/19 16:10:15;;;;;;;7.45;5.50;;;4.70;55.70;;;3.21;59.10;100220.75;12255032;19;20011;-84
2023/01/19 16:14:17;;;;;;;6.80;5.07;;;4.70;55.70;;;3.14;59.06;100225.28;12254211;19;20441;-84
2023/01/19 16:18:19;;;;;;;7.70;4.90;;;4.70;55.70;;;2.98;58.96;100201.72;12256401;19;20371;-84
2023/01/19 16:22:20;;;;;;;6.47;5.18;;;4.70;55.60;;;3.18;58.91;100244.06;12259221;19;20002;-84
2023/01/19 16:26:31;;;;;;;7.18;5.00;;;4.60;55.60;;;3.14;58.81;100234.78;12252128;19;20014;-84
2023/01/19 16:30:32;;;;;;;6.15;5.20;;;4.60;55.60;;;3.04;58.74;100224.72;12257131;19;20018;-84
2023/01/19 16:34:34;;;;;;;7.35;5.28;;;4.60;55.60;;;3.12;58.97;100239.97;12253911;19;20017;-84
2023/01/19 16:38:36;;;;;;;9.27;7.25;;;4.60;55.90;;;3.08;58.89;100240.97;12254558;19;20021;-84
2023/01/19 16:42:39;;;;;;;10.13;7.25;;;4.50;55.50;;;3.09;59.19;100248.63;12255665;19;20475;-84
2023/01/19 16:46:44;;;;;;;9.60;7.47;;;4.50;55.60;;;3.01;58.90;100240.31;12252770;19;20014;-84
2023/01/19 16:51:04;;;;;;;8.48;7.10;;;4.50;55.60;;;3.03;58.87;100246.25;12252318;19;20022;-84
2023/01/19 16:55:08;;;;;;;9.65;7.07;;;4.50;55.60;;;2.96;58.94;100249.91;12251609;19;20471;-84
2023/01/19 16:59:16;;;;;;;9.15;6.13;;;4.50;55.60;;;2.99;59.00;100254.97;12249563;19;20024;-85
2023/01/19 17:03:18;;;;;;;8.68;6.25;;;4.40;55.60;;;2.96;59.02;100247.34;12254274;19;20011;-84
2023/01/19 17:07:19;;;;;;;11.57;6.53;;;4.40;55.60;;;2.96;58.76;100249.09;12256700;19;20038;-84
2023/01/19 17:11:26;;;;;;;10.30;7.10;;;4.40;55.60;;;2.89;58.76;100248.44;12253360;19;20090;-84
2023/01/19 17:15:29;;;;;;;12.13;6.90;;;4.40;55.70;;;2.84;59.03;100240.84;12250729;19;20020;-84
2023/01/19 17:19:31;;;;;;;9.23;6.15;;;4.40;55.60;;;2.83;59.13;100246.88;12248224;19;20044;-84
2023/01/19 17:23:35;;;;;;;12.90;7.05;;;4.30;55.50;;;2.88;58.90;100257.06;12251639;19;20014;-84